Time;durP1;ratioP1;P1;durP2;ratioP2;P2;SDS_P1;SDS_P2;PMS_P1;PMS_P2;Temp;Humidity;BMP_temperature;BMP_pressure;BME280_temperature;BME280_humidity;BME280_pressure;Samples;Min_cycle;Max_cycle;Signal;HPM_P1;HPM_P2
2022/12/08 00:00:00;;;;;;;3.30;1.40;;;18.40;48.70;;;;;;5051419;28;20112;-43
2022/12/08 00:02:27;;;;;;;3.95;1.48;;;18.30;48.70;;;;;;5050284;28;20127;-43
2022/12/08 00:10:24;;;;;;;3.65;1.33;;;18.30;48.80;;;;;;5051692;28;20052;-43
2022/12/08 00:12:50;;;;;;;1.92;1.30;;;18.20;48.80;;;;;;5051025;28;20045;-43
2022/12/08 00:15:17;;;;;;;2.42;1.20;;;18.20;48.80;;;;;;5050389;28;20057;-43
2022/12/08 00:17:44;;;;;;;2.33;1.10;;;18.20;48.80;;;;;;5051589;28;20040;-43
2022/12/08 00:20:11;;;;;;;3.67;1.17;;;18.10;48.70;;;;;;5050395;28;20131;-43
2022/12/08 00:22:39;;;;;;;1.90;1.30;;;18.20;48.80;;;;;;5051312;28;20104;-43
2022/12/08 00:25:07;;;;;;;2.38;1.20;;;18.10;48.80;;;;;;5051315;28;20420;-43
2022/12/08 00:27:33;;;;;;;2.53;1.10;;;18.10;48.80;;;;;;5051135;28;20044;-43
2022/12/08 00:30:00;;;;;;;2.28;1.30;;;18.10;48.80;;;;;;5050184;28;20053;-43
2022/12/08 00:32:27;;;;;;;1.63;1.10;;;18.00;48.70;;;;;;5051102;28;20557;-43
2022/12/08 00:34:54;;;;;;;1.85;1.20;;;18.00;48.80;;;;;;5051080;28;20049;-43
2022/12/08 00:37:20;;;;;;;1.55;0.93;;;18.00;48.80;;;;;;5051182;28;20045;-43
2022/12/08 00:39:48;;;;;;;1.70;1.10;;;18.00;48.80;;;;;;5051168;28;20055;-44
2022/12/08 00:42:16;;;;;;;1.85;1.15;;;17.90;48.80;;;;;;5051060;28;20071;-43
2022/12/08 00:44:43;;;;;;;1.67;1.10;;;17.90;48.80;;;;;;5051190;28;20049;-43
2022/12/08 00:47:10;;;;;;;2.22;1.00;;;17.90;48.90;;;;;;5051344;28;20063;-43
2022/12/08 00:49:36;;;;;;;2.30;1.30;;;17.80;48.90;;;;;;5051410;28;20053;-43
2022/12/08 00:52:03;;;;;;;1.67;1.02;;;17.80;48.90;;;;;;5051146;28;20049;-43
2022/12/08 00:54:30;;;;;;;1.50;0.93;;;17.80;49.00;;;;;;5051145;28;20053;-43
2022/12/08 00:56:58;;;;;;;1.80;1.15;;;17.80;49.00;;;;;;5049773;28;20045;-43
2022/12/08 00:59:25;;;;;;;1.48;1.05;;;17.80;49.00;;;;;;5051344;28;20048;-43
2022/12/08 01:01:52;;;;;;;1.85;1.00;;;17.80;49.00;;;;;;5049942;28;20505;-43
2022/12/08 01:04:19;;;;;;;1.30;0.90;;;17.70;49.00;;;;;;5051145;28;20052;-43
2022/12/08 01:06:45;;;;;;;2.17;1.00;;;17.70;49.10;;;;;;5051152;28;20044;-43
2022/12/08 01:09:13;;;;;;;2.40;1.00;;;17.70;49.10;;;;;;5051177;28;20060;-43
2022/12/08 01:11:40;;;;;;;2.70;1.30;;;17.60;49.10;;;;;;5050731;28;20072;-43
2022/12/08 01:14:08;;;;;;;1.30;1.00;;;17.60;49.10;;;;;;5050988;28;20059;-43
2022/12/08 01:16:35;;;;;;;1.75;0.93;;;17.60;49.20;;;;;;5050787;28;20055;-43
2022/12/08 01:19:02;;;;;;;1.38;0.90;;;17.60;49.20;;;;;;5051231;28;20045;-43
2022/12/08 01:21:29;;;;;;;1.92;1.00;;;17.60;49.20;;;;;;5050724;28;20049;-43
2022/12/08 01:23:56;;;;;;;2.58;1.00;;;17.50;49.20;;;;;;5052108;28;20501;-43
2022/12/08 01:26:23;;;;;;;1.95;0.85;;;17.50;49.30;;;;;;5053376;28;20103;-43
2022/12/08 01:28:50;;;;;;;1.75;0.90;;;17.50;49.30;;;;;;5054520;28;20127;-43
2022/12/08 01:31:19;;;;;;;1.50;1.00;;;17.50;49.30;;;;;;5054529;28;20071;-43
2022/12/08 01:33:45;;;;;;;1.67;0.98;;;17.50;49.30;;;;;;5054397;28;20059;-43
2022/12/08 01:36:18;;;;;;;1.80;1.08;;;17.40;49.30;;;;;;5054095;28;20055;-43
2022/12/08 01:38:45;;;;;;;1.20;0.93;;;17.40;49.30;;;;;;5053965;28;20048;-43
2022/12/08 01:41:14;;;;;;;2.65;1.00;;;17.40;49.30;;;;;;5054185;28;20509;-43
2022/12/08 01:43:51;;;;;;;1.90;1.00;;;17.40;49.40;;;;;;5054190;28;20071;-43
2022/12/08 01:46:19;;;;;;;1.00;0.80;;;17.40;49.40;;;;;;5053961;28;20120;-43
2022/12/08 01:48:45;;;;;;;1.88;0.90;;;17.30;49.40;;;;;;5054240;28;20055;-43
2022/12/08 01:51:12;;;;;;;1.10;0.80;;;17.30;49.40;;;;;;5053780;28;20528;-44
2022/12/08 01:53:39;;;;;;;1.48;0.90;;;17.30;49.50;;;;;;5054021;28;20049;-43
2022/12/08 01:56:06;;;;;;;1.38;0.80;;;17.30;49.50;;;;;;5053622;28;20048;-43
2022/12/08 01:58:36;;;;;;;1.30;0.85;;;17.20;49.50;;;;;;5053729;28;20413;-43
2022/12/08 02:01:02;;;;;;;1.73;0.90;;;17.20;49.50;;;;;;5053784;28;20049;-44
2022/12/08 02:03:38;;;;;;;2.28;0.77;;;17.20;49.50;;;;;;5053848;28;20049;-43
2022/12/08 02:06:05;;;;;;;1.77;1.00;;;17.20;49.60;;;;;;5053219;28;20045;-43
2022/12/08 02:08:32;;;;;;;1.58;0.80;;;17.10;49.50;;;;;;5053957;28;20055;-43
2022/12/08 02:10:58;;;;;;;0.95;0.70;;;17.10;49.60;;;;;;5053701;28;20101;-43
2022/12/08 02:13:25;;;;;;;0.57;0.57;;;17.10;49.70;;;;;;5053403;28;20041;-43
2022/12/08 02:15:56;;;;;;;1.58;0.77;;;17.10;49.70;;;;;;5053558;28;20052;-43
2022/12/08 02:18:32;;;;;;;1.70;1.13;;;17.10;49.80;;;;;;5052904;28;20413;-43
2022/12/08 02:21:01;;;;;;;1.80;0.90;;;17.00;49.80;;;;;;5053237;28;20049;-43
2022/12/08 02:23:34;;;;;;;1.30;0.90;;;17.10;50.00;;;;;;5053420;28;20071;-43
2022/12/08 02:26:32;;;;;;;1.02;0.70;;;17.10;50.00;;;;;;5053053;28;20052;-43
2022/12/08 02:29:24;;;;;;;1.60;0.98;;;17.10;49.90;;;;;;5052754;28;20049;-43
2022/12/08 02:31:56;;;;;;;2.40;1.17;;;17.10;49.90;;;;;;5051508;28;20106;-42
2022/12/08 02:34:26;;;;;;;1.73;0.93;;;17.10;50.00;;;;;;5052155;28;20049;-43
2022/12/08 02:36:57;;;;;;;1.05;0.68;;;17.10;50.00;;;;;;5053555;28;20142;-42
2022/12/08 02:39:35;;;;;;;0.63;0.63;;;17.20;50.20;;;;;;5053378;28;20048;-43
2022/12/08 02:42:06;;;;;;;1.30;0.60;;;17.20;50.10;;;;;;5053139;28;20052;-43
2022/12/08 02:44:35;;;;;;;0.88;0.85;;;17.20;50.00;;;;;;5052546;28;20477;-43
2022/12/08 02:47:04;;;;;;;0.60;0.52;;;17.20;50.00;;;;;;5033356;28;20050;-43
2022/12/08 02:49:32;;;;;;;2.10;0.90;;;17.30;50.10;;;;;;5032954;28;20059;-43
2022/12/08 02:52:07;;;;;;;1.23;0.90;;;17.30;50.00;;;;;;5033286;28;20094;-42
2022/12/08 02:54:33;;;;;;;1.40;0.90;;;17.30;50.00;;;;;;5032594;28;20046;-43
2022/12/08 02:57:12;;;;;;;1.83;0.93;;;17.30;50.00;;;;;;5032775;28;20498;-43
2022/12/08 02:59:47;;;;;;;1.10;0.90;;;17.40;50.00;;;;;;5045500;28;20048;-42
2022/12/08 03:02:25;;;;;;;2.10;0.90;;;17.40;50.00;;;;;;5050871;28;20475;-43
2022/12/08 03:04:58;;;;;;;1.20;0.65;;;17.40;50.00;;;;;;5052566;28;20055;-43
2022/12/08 03:07:26;;;;;;;0.93;0.68;;;17.50;50.00;;;;;;5052770;28;20055;-43
2022/12/08 03:09:55;;;;;;;1.60;0.80;;;17.40;49.90;;;;;;5052458;28;20052;-43
2022/12/08 03:12:25;;;;;;;1.80;0.80;;;17.50;49.90;;;;;;5052273;28;20049;-43
2022/12/08 03:14:53;;;;;;;0.50;0.50;;;17.50;49.90;;;;;;5052426;28;20404;-43
2022/12/08 03:17:21;;;;;;;0.88;0.80;;;17.50;49.80;;;;;;5052379;28;20051;-43
2022/12/08 03:19:48;;;;;;;0.70;0.57;;;17.50;49.80;;;;;;5052472;28;20055;-43
2022/12/08 03:22:16;;;;;;;0.68;0.50;;;17.60;49.80;;;;;;5052301;28;20059;-43
2022/12/08 03:24:44;;;;;;;0.68;0.60;;;17.60;49.80;;;;;;5052294;28;20405;-43
2022/12/08 03:27:12;;;;;;;1.58;0.80;;;17.60;49.80;;;;;;5052118;28;20409;-43
2022/12/08 03:29:39;;;;;;;1.17;0.80;;;17.60;49.80;;;;;;5052334;28;20049;-43
2022/12/08 03:32:09;;;;;;;0.85;0.60;;;17.60;49.70;;;;;;5052179;28;20147;-44
2022/12/08 03:34:35;;;;;;;0.60;0.60;;;17.60;49.70;;;;;;5051921;28;20109;-43
2022/12/08 03:37:02;;;;;;;0.90;0.70;;;17.60;49.70;;;;;;5051900;28;20053;-43
2022/12/08 03:39:30;;;;;;;1.02;0.70;;;17.70;49.80;;;;;;5051719;28;20072;-43
2022/12/08 03:41:57;;;;;;;1.73;0.70;;;17.70;49.70;;;;;;5052236;28;20053;-43
2022/12/08 03:44:23;;;;;;;1.05;0.80;;;17.70;49.70;;;;;;5051670;28;20051;-43
2022/12/08 03:46:50;;;;;;;1.25;0.70;;;17.70;49.60;;;;;;5051603;28;20059;-43
2022/12/08 03:49:17;;;;;;;1.00;0.68;;;17.70;49.60;;;;;;5052148;28;20049;-43
2022/12/08 03:51:43;;;;;;;0.73;0.70;;;17.80;49.60;;;;;;5051769;28;20048;-43
2022/12/08 03:54:10;;;;;;;0.73;0.60;;;17.80;49.60;;;;;;5051334;28;20041;-43
2022/12/08 03:56:38;;;;;;;0.65;0.60;;;17.80;49.50;;;;;;5051645;28;20489;-43
2022/12/08 03:59:05;;;;;;;0.43;0.43;;;17.80;49.50;;;;;;5051734;28;20052;-43
2022/12/08 04:01:32;;;;;;;1.15;0.65;;;17.80;49.50;;;;;;5051936;28;20051;-43
2022/12/08 04:03:59;;;;;;;0.60;0.60;;;17.80;49.40;;;;;;5051079;28;20056;-43
2022/12/08 04:06:25;;;;;;;0.93;0.70;;;17.80;49.40;;;;;;5050229;28;20079;-43
2022/12/08 04:08:52;;;;;;;0.60;0.60;;;17.80;49.40;;;;;;5051673;28;20056;-43
2022/12/08 04:11:19;;;;;;;0.70;0.57;;;17.90;49.40;;;;;;5051708;28;20051;-43
2022/12/08 04:13:47;;;;;;;0.70;0.50;;;17.90;49.40;;;;;;5051149;28;20063;-43
2022/12/08 04:16:15;;;;;;;0.52;0.52;;;17.90;49.30;;;;;;5051531;28;20045;-43
2022/12/08 04:18:41;;;;;;;0.90;0.65;;;17.90;49.30;;;;;;5051328;28;20053;-43
2022/12/08 04:21:08;;;;;;;0.55;0.50;;;17.90;49.30;;;;;;5051210;28;20045;-43
2022/12/08 04:23:35;;;;;;;0.80;0.60;;;17.90;49.20;;;;;;5051267;28;20059;-43
2022/12/08 04:26:01;;;;;;;1.05;0.80;;;17.90;49.20;;;;;;5051277;28;20051;-43
2022/12/08 04:28:29;;;;;;;0.65;0.65;;;17.90;49.20;;;;;;5051558;28;20051;-43
2022/12/08 04:30:57;;;;;;;0.50;0.50;;;18.00;49.20;;;;;;5051380;28;20060;-43
2022/12/08 04:33:23;;;;;;;1.35;0.70;;;18.00;49.20;;;;;;5050879;28;20418;-43
2022/12/08 04:35:50;;;;;;;2.15;0.70;;;18.00;49.20;;;;;;5051519;28;20044;-43
2022/12/08 04:38:17;;;;;;;0.85;0.70;;;18.00;49.20;;;;;;5051172;28;20051;-43
2022/12/08 04:40:43;;;;;;;0.88;0.60;;;18.00;49.10;;;;;;5051343;28;20051;-43
2022/12/08 04:43:10;;;;;;;1.17;0.68;;;18.00;49.10;;;;;;5051174;28;20504;-43
2022/12/08 04:45:39;;;;;;;0.82;0.60;;;18.00;49.10;;;;;;5050173;28;20053;-43
2022/12/08 04:48:07;;;;;;;0.52;0.52;;;18.00;49.00;;;;;;5051006;28;20053;-43
2022/12/08 04:50:34;;;;;;;0.45;0.45;;;18.00;49.00;;;;;;5051376;28;20065;-43
2022/12/08 04:53:00;;;;;;;0.70;0.50;;;18.00;49.00;;;;;;5051262;28;20059;-43
2022/12/08 04:55:27;;;;;;;0.77;0.50;;;18.00;49.00;;;;;;5051413;28;20052;-43
2022/12/08 04:57:54;;;;;;;1.25;0.70;;;18.10;49.00;;;;;;5051042;28;20059;-43
2022/12/08 05:00:20;;;;;;;0.52;0.52;;;18.10;49.00;;;;;;5055113;28;20056;-43
2022/12/08 05:02:47;;;;;;;0.80;0.60;;;18.10;49.00;;;;;;5055002;28;20136;-43
2022/12/08 05:05:15;;;;;;;1.75;0.80;;;18.10;49.00;;;;;;5054732;28;20045;-43
2022/12/08 05:07:42;;;;;;;0.47;0.47;;;18.10;48.90;;;;;;5055084;28;20049;-43
2022/12/08 05:10:09;;;;;;;0.57;0.45;;;18.10;48.90;;;;;;5054887;28;20049;-43
2022/12/08 05:12:35;;;;;;;0.63;0.50;;;18.10;48.90;;;;;;5054652;28;20056;-43
2022/12/08 05:15:02;;;;;;;1.08;0.70;;;18.10;48.90;;;;;;5054659;28;20128;-43
2022/12/08 05:17:29;;;;;;;0.65;0.57;;;18.10;48.80;;;;;;5054645;28;20413;-43
2022/12/08 05:19:56;;;;;;;0.47;0.47;;;18.10;48.90;;;;;;5054248;28;20058;-43
2022/12/08 05:22:24;;;;;;;1.40;0.80;;;18.10;48.80;;;;;;5054690;28;20045;-43
2022/12/08 05:24:50;;;;;;;0.73;0.60;;;18.10;48.80;;;;;;5054822;28;20049;-43
2022/12/08 05:27:17;;;;;;;0.40;0.40;;;18.10;48.80;;;;;;5054450;28;20052;-43
2022/12/08 05:29:44;;;;;;;1.17;0.50;;;18.10;48.80;;;;;;5053523;28;20048;-43
2022/12/08 05:32:11;;;;;;;1.25;0.50;;;18.10;48.80;;;;;;5053811;28;20044;-43
2022/12/08 05:34:37;;;;;;;1.33;0.50;;;18.10;48.80;;;;;;5054102;28;20049;-43
2022/12/08 05:37:04;;;;;;;0.75;0.50;;;18.10;48.80;;;;;;5054151;28;20045;-43
2022/12/08 05:39:32;;;;;;;0.73;0.47;;;18.20;48.80;;;;;;5054227;28;20390;-43
2022/12/08 05:41:59;;;;;;;0.35;0.35;;;18.20;48.90;;;;;;5054244;28;20175;-43
2022/12/08 05:44:26;;;;;;;0.40;0.40;;;18.20;48.90;;;;;;5053497;28;20135;-43
2022/12/08 05:46:52;;;;;;;0.50;0.50;;;18.20;48.90;;;;;;5053794;28;20045;-43
2022/12/08 05:49:19;;;;;;;1.13;0.68;;;18.20;48.90;;;;;;5053911;28;20382;-42
2022/12/08 05:51:46;;;;;;;0.50;0.50;;;18.20;48.90;;;;;;5053610;28;20053;-43
2022/12/08 05:54:13;;;;;;;0.52;0.50;;;18.20;48.90;;;;;;5053503;28;20044;-43
2022/12/08 05:56:41;;;;;;;0.68;0.50;;;18.10;48.90;;;;;;5053101;28;20106;-43
2022/12/08 05:59:07;;;;;;;0.93;0.80;;;18.20;48.90;;;;;;5053609;28;20041;-43
2022/12/08 06:01:34;;;;;;;0.55;0.55;;;18.10;48.80;;;;;;5053550;28;20067;-43
2022/12/08 06:04:01;;;;;;;1.35;0.45;;;18.10;48.90;;;;;;5053328;28;20053;-43
2022/12/08 06:06:28;;;;;;;0.40;0.40;;;18.10;48.90;;;;;;5052923;28;20123;-43
2022/12/08 06:08:55;;;;;;;0.63;0.40;;;18.10;48.90;;;;;;5052886;28;20047;-44
2022/12/08 06:11:23;;;;;;;0.75;0.40;;;18.10;48.90;;;;;;5053631;28;20053;-43
2022/12/08 06:13:51;;;;;;;0.40;0.40;;;18.10;48.90;;;;;;5053200;28;20063;-43
2022/12/08 06:16:18;;;;;;;0.90;0.88;;;18.10;48.90;;;;;;5053284;28;20045;-43
2022/12/08 06:18:45;;;;;;;0.75;0.30;;;18.10;48.90;;;;;;5050390;28;20059;-42
2022/12/08 06:21:12;;;;;;;1.10;0.60;;;18.10;48.90;;;;;;5053128;28;20053;-43
2022/12/08 06:23:39;;;;;;;0.40;0.40;;;18.10;49.00;;;;;;5053071;28;20382;-43
2022/12/08 06:26:08;;;;;;;0.73;0.47;;;18.00;49.00;;;;;;5053266;28;20059;-43
2022/12/08 06:28:35;;;;;;;0.40;0.40;;;18.00;49.00;;;;;;5053452;28;20045;-43
2022/12/08 06:31:06;;;;;;;0.40;0.40;;;18.00;49.00;;;;;;5053348;28;20053;-43
2022/12/08 06:33:33;;;;;;;0.40;0.40;;;18.10;49.00;;;;;;5053013;28;20045;-43
2022/12/08 06:36:00;;;;;;;0.45;0.45;;;18.00;48.90;;;;;;5053043;28;20063;-43
2022/12/08 06:38:26;;;;;;;0.43;0.30;;;18.10;49.00;;;;;;5052850;28;20059;-43
2022/12/08 06:40:54;;;;;;;0.95;0.55;;;18.00;49.00;;;;;;5053091;28;20473;-43
2022/12/08 06:43:21;;;;;;;0.55;0.55;;;18.10;49.00;;;;;;5052800;28;20053;-43
2022/12/08 06:45:48;;;;;;;0.82;0.40;;;18.00;48.90;;;;;;5053032;28;20517;-43
2022/12/08 06:48:17;;;;;;;0.55;0.40;;;18.00;48.90;;;;;;5052895;28;20053;-43
2022/12/08 06:50:43;;;;;;;0.85;0.40;;;18.00;48.90;;;;;;5052787;28;20048;-43
2022/12/08 06:53:11;;;;;;;0.40;0.40;;;18.00;48.90;;;;;;5052682;28;20048;-43
2022/12/08 06:55:38;;;;;;;0.80;0.50;;;18.00;48.90;;;;;;5052827;28;20060;-43
2022/12/08 06:58:04;;;;;;;0.40;0.40;;;18.00;48.90;;;;;;5052543;28;20103;-43
2022/12/08 07:00:31;;;;;;;2.10;0.50;;;18.00;48.90;;;;;;5052796;28;20080;-43
2022/12/08 07:02:58;;;;;;;1.08;0.52;;;18.00;48.90;;;;;;5051444;28;20464;-43
2022/12/08 07:05:26;;;;;;;1.30;0.50;;;18.00;48.90;;;;;;5052313;28;20047;-43
2022/12/08 07:07:52;;;;;;;0.63;0.40;;;18.00;48.90;;;;;;5053011;28;20049;-43
2022/12/08 07:10:19;;;;;;;0.40;0.35;;;18.00;48.90;;;;;;5052467;28;20170;-43
2022/12/08 07:12:46;;;;;;;0.32;0.30;;;18.00;48.90;;;;;;5050828;28;20045;-43
2022/12/08 07:15:12;;;;;;;3.33;0.50;;;18.00;49.00;;;;;;5051776;28;20494;-43
2022/12/08 07:17:39;;;;;;;0.80;0.70;;;18.00;49.00;;;;;;5051580;28;20049;-43
2022/12/08 07:20:07;;;;;;;0.65;0.60;;;18.00;49.10;;;;;;5048032;28;20049;-43
2022/12/08 07:22:35;;;;;;;0.68;0.60;;;18.00;49.20;;;;;;5049422;28;20408;-43
2022/12/08 07:25:02;;;;;;;0.77;0.57;;;18.10;49.30;;;;;;5051206;28;20045;-43
2022/12/08 07:27:29;;;;;;;0.75;0.50;;;18.10;49.30;;;;;;5051954;28;20132;-43
2022/12/08 07:29:55;;;;;;;1.27;0.60;;;18.10;49.30;;;;;;5051285;28;20043;-43
2022/12/08 07:32:22;;;;;;;0.65;0.50;;;18.20;49.30;;;;;;5051345;28;20500;-43
2022/12/08 07:34:49;;;;;;;0.85;0.50;;;18.20;49.30;;;;;;5051703;28;20132;-43
2022/12/08 07:37:16;;;;;;;1.42;0.30;;;18.20;49.30;;;;;;5052254;28;20437;-43
2022/12/08 07:39:44;;;;;;;1.83;0.50;;;18.30;49.40;;;;;;5050825;28;20128;-43
2022/12/08 07:42:10;;;;;;;2.58;0.60;;;18.30;49.40;;;;;;5051854;28;20056;-43
2022/12/08 07:44:37;;;;;;;1.10;0.60;;;18.30;49.40;;;;;;5052016;28;20064;-43
2022/12/08 07:47:04;;;;;;;2.38;0.60;;;18.40;49.40;;;;;;5051751;28;20047;-43
2022/12/08 07:49:31;;;;;;;2.70;0.60;;;18.40;49.40;;;;;;5050779;28;20059;-43
2022/12/08 07:51:57;;;;;;;1.38;0.80;;;18.50;49.50;;;;;;5050036;28;20489;-43
2022/12/08 07:54:24;;;;;;;1.10;0.57;;;18.50;49.50;;;;;;5050856;28;20048;-43
2022/12/08 07:56:52;;;;;;;0.85;0.57;;;18.50;49.40;;;;;;5051412;28;20049;-43
2022/12/08 07:59:19;;;;;;;0.52;0.50;;;18.60;49.40;;;;;;5051870;28;20107;-43
2022/12/08 08:01:47;;;;;;;0.63;0.45;;;18.60;49.30;;;;;;5051986;28;20420;-43
2022/12/08 08:04:13;;;;;;;0.63;0.40;;;18.70;49.30;;;;;;5051484;28;20102;-43
2022/12/08 08:06:40;;;;;;;0.57;0.40;;;18.70;49.20;;;;;;5051998;28;20059;-43
2022/12/08 08:09:07;;;;;;;0.65;0.50;;;18.80;49.20;;;;;;5052040;28;20420;-43
2022/12/08 08:11:34;;;;;;;0.75;0.60;;;18.80;49.10;;;;;;5051334;28;20414;-43
2022/12/08 08:14:02;;;;;;;0.38;0.38;;;18.80;49.10;;;;;;5051439;28;20041;-44
2022/12/08 08:16:29;;;;;;;0.55;0.50;;;18.90;49.00;;;;;;5051534;28;20131;-44
2022/12/08 08:18:55;;;;;;;1.15;0.60;;;18.90;49.00;;;;;;5051173;28;20041;-44
2022/12/08 08:21:22;;;;;;;0.40;0.40;;;18.90;48.90;;;;;;5051052;28;20048;-44
2022/12/08 08:23:49;;;;;;;0.47;0.47;;;19.00;48.90;;;;;;5051481;28;20056;-43
2022/12/08 08:26:15;;;;;;;1.50;0.40;;;19.00;48.90;;;;;;5051787;28;20144;-43
2022/12/08 08:28:44;;;;;;;0.50;0.50;;;19.10;48.90;;;;;;5051630;28;20063;-44
2022/12/08 08:31:12;;;;;;;0.43;0.43;;;19.10;48.80;;;;;;5051432;28;20563;-43
2022/12/08 08:33:39;;;;;;;0.50;0.40;;;19.10;48.80;;;;;;5052865;28;20049;-42
2022/12/08 08:36:07;;;;;;;0.57;0.55;;;19.20;48.70;;;;;;5055374;28;20055;-42
2022/12/08 08:38:34;;;;;;;1.30;0.52;;;19.20;48.70;;;;;;5055090;28;20053;-42
2022/12/08 08:41:01;;;;;;;0.63;0.43;;;19.20;48.60;;;;;;5055488;28;20412;-43
2022/12/08 08:43:31;;;;;;;1.50;0.60;;;19.30;48.60;;;;;;5054369;28;20049;-42
2022/12/08 08:45:58;;;;;;;0.73;0.60;;;19.30;48.50;;;;;;5055068;28;20049;-43
2022/12/08 08:48:26;;;;;;;1.20;0.57;;;19.40;48.50;;;;;;5055709;28;20052;-42
2022/12/08 08:50:53;;;;;;;0.43;0.40;;;19.40;48.20;;;;;;5054982;28;20063;-43
2022/12/08 08:53:20;;;;;;;2.47;0.60;;;19.40;48.10;;;;;;5055406;28;20404;-44
2022/12/08 08:55:46;;;;;;;2.05;0.50;;;19.50;48.20;;;;;;4172407;28;10000403;-41
2022/12/08 08:58:13;;;;;;;0.40;0.40;;;19.50;48.30;;;;;;4172867;28;10000717;-43
2022/12/08 09:00:40;;;;;;;2.33;0.60;;;19.50;48.30;;;;;;5054697;28;20049;-43
2022/12/08 09:03:06;;;;;;;2.05;0.40;;;19.60;48.30;;;;;;5054855;28;20371;-44
2022/12/08 09:05:35;;;;;;;2.30;1.00;;;19.60;48.20;;;;;;3290227;28;10001021;-44
2022/12/08 09:08:01;;;;;;;0.40;0.40;;;19.70;48.20;;;;;;4166930;28;10001295;-44
2022/12/08 09:10:28;;;;;;;0.50;0.50;;;19.70;48.20;;;;;;5053307;28;20098;-46
2022/12/08 09:12:55;;;;;;;0.55;0.50;;;19.80;48.10;;;;;;4170960;28;10001028;-46
2022/12/08 09:15:21;;;;;;;1.17;0.65;;;19.80;48.00;;;;;;5054727;28;20057;-46
2022/12/08 09:17:48;;;;;;;0.75;0.75;;;19.80;47.90;;;;;;5054753;28;20048;-44
2022/12/08 09:20:15;;;;;;;0.80;0.60;;;19.90;47.90;;;;;;4171156;28;10000332;-44
2022/12/08 09:22:43;;;;;;;1.25;0.60;;;19.90;47.90;;;;;;5051941;28;20420;-43
2022/12/08 09:25:10;;;;;;;0.53;0.50;;;20.00;47.80;;;;;;4167398;28;10001069;-43
2022/12/08 09:27:36;;;;;;;0.50;0.50;;;20.00;47.80;;;;;;5039550;28;20452;-45
2022/12/08 09:30:04;;;;;;;0.98;0.45;;;20.00;47.70;;;;;;5054688;28;20048;-46
2022/12/08 09:32:36;;;;;;;2.45;0.60;;;20.00;47.60;;;;;;4379580;28;10001278;-44
2022/12/08 09:35:03;;;;;;;0.60;0.60;;;20.10;47.60;;;;;;5050863;28;20857;-43
2022/12/08 09:37:30;;;;;;;0.77;0.50;;;20.10;47.60;;;;;;5054744;28;20124;-44
2022/12/08 09:39:58;;;;;;;4.47;0.80;;;20.10;47.50;;;;;;5054249;28;20045;-44
2022/12/08 09:42:30;;;;;;;1.50;0.80;;;20.10;47.40;;;;;;5053100;28;20087;-44
2022/12/08 09:45:00;;;;;;;0.90;0.60;;;20.10;47.40;;;;;;5053633;28;20055;-44
2022/12/08 09:47:28;;;;;;;1.13;0.63;;;20.20;47.40;;;;;;5054512;28;20049;-44
2022/12/08 09:49:58;;;;;;;1.10;0.52;;;20.20;47.40;;;;;;5054531;28;20059;-44
2022/12/08 09:52:26;;;;;;;0.88;0.50;;;20.20;47.30;;;;;;5054025;28;20048;-44
2022/12/08 09:54:53;;;;;;;1.92;0.65;;;20.20;47.30;;;;;;5053523;28;20395;-44
2022/12/08 09:57:21;;;;;;;0.98;0.50;;;20.20;47.20;;;;;;5052503;28;20045;-44
2022/12/08 09:59:49;;;;;;;1.20;0.50;;;20.20;47.20;;;;;;5052777;28;20041;-44
2022/12/08 10:02:20;;;;;;;0.90;0.68;;;20.30;47.20;;;;;;5053137;28;20045;-44
2022/12/08 10:04:47;;;;;;;1.13;0.50;;;20.30;47.20;;;;;;5053398;28;20395;-44
2022/12/08 10:07:16;;;;;;;0.85;0.57;;;20.30;47.20;;;;;;5053374;28;20045;-44
2022/12/08 10:09:46;;;;;;;0.50;0.50;;;20.30;47.10;;;;;;5053491;28;20053;-44
2022/12/08 10:12:16;;;;;;;0.75;0.60;;;20.30;47.10;;;;;;5050346;28;20509;-44
2022/12/08 10:14:45;;;;;;;0.80;0.70;;;20.40;47.10;;;;;;5053400;28;20045;-43
2022/12/08 10:17:16;;;;;;;0.57;0.57;;;20.40;47.10;;;;;;5049529;28;20032;-44
2022/12/08 10:19:44;;;;;;;0.73;0.60;;;20.40;47.00;;;;;;5053286;28;20070;-44
2022/12/08 10:22:18;;;;;;;0.73;0.50;;;20.40;47.00;;;;;;5052780;28;20055;-43
2022/12/08 10:24:48;;;;;;;1.03;0.50;;;20.40;46.90;;;;;;5053275;28;20047;-44
2022/12/08 10:27:15;;;;;;;0.77;0.60;;;20.50;47.00;;;;;;5050780;28;20059;-44
2022/12/08 10:29:41;;;;;;;0.85;0.60;;;20.50;46.90;;;;;;5052932;28;20036;-44
2022/12/08 10:32:14;;;;;;;1.15;0.70;;;20.50;46.90;;;;;;5052476;28;20049;-44
2022/12/08 10:35:00;;;;;;;0.57;0.50;;;20.50;46.80;;;;;;5052883;28;20401;-44
2022/12/08 10:37:27;;;;;;;1.02;0.65;;;20.50;46.90;;;;;;5051153;28;20053;-43
2022/12/08 10:40:01;;;;;;;0.80;0.60;;;20.50;46.80;;;;;;5049377;28;20055;-44
2022/12/08 10:42:36;;;;;;;2.50;0.70;;;20.60;46.80;;;;;;5050060;28;20048;-44
2022/12/08 10:45:15;;;;;;;0.55;0.52;;;20.60;46.80;;;;;;5051285;28;20044;-44
2022/12/08 10:47:43;;;;;;;8.95;0.80;;;20.60;46.80;;;;;;5050176;28;20431;-44
2022/12/08 10:50:18;;;;;;;0.50;0.50;;;20.70;46.80;;;;;;5052185;28;20080;-44
2022/12/08 10:52:44;;;;;;;0.57;0.50;;;20.70;46.70;;;;;;5051093;28;20448;-44
2022/12/08 10:55:15;;;;;;;0.75;0.57;;;20.70;46.70;;;;;;5051795;28;20052;-44
2022/12/08 10:57:41;;;;;;;0.70;0.70;;;20.70;46.60;;;;;;5052072;28;20508;-44
2022/12/08 11:00:12;;;;;;;0.93;0.82;;;20.70;46.60;;;;;;5052674;28;20044;-44
2022/12/08 11:02:55;;;;;;;0.93;0.70;;;20.80;46.60;;;;;;5052613;28;20053;-44
2022/12/08 11:05:23;;;;;;;1.77;0.85;;;20.80;46.60;;;;;;5053111;28;20048;-44
2022/12/08 11:07:50;;;;;;;1.08;0.70;;;20.80;46.50;;;;;;5052916;28;20053;-44
2022/12/08 11:10:18;;;;;;;3.92;0.90;;;20.80;46.40;;;;;;5052513;28;20053;-44
2022/12/08 11:12:45;;;;;;;1.60;0.70;;;20.80;46.40;;;;;;5051990;28;20045;-44
2022/12/08 11:15:14;;;;;;;0.90;0.73;;;20.80;46.30;;;;;;5049902;28;20051;-44
2022/12/08 11:17:43;;;;;;;1.20;0.80;;;20.80;46.20;;;;;;5052577;28;20135;-44
2022/12/08 11:20:21;;;;;;;0.80;0.80;;;20.80;46.20;;;;;;5052324;28;20453;-44
2022/12/08 11:22:51;;;;;;;2.40;1.55;;;20.80;46.20;;;;;;5052344;28;20056;-44
2022/12/08 11:25:19;;;;;;;2.53;0.73;;;20.80;46.00;;;;;;5051313;28;20586;-44
2022/12/08 11:27:47;;;;;;;4.05;0.90;;;20.80;46.00;;;;;;5052186;28;20077;-44
2022/12/08 11:30:15;;;;;;;0.68;0.60;;;20.80;45.90;;;;;;5052212;28;20402;-44
2022/12/08 11:32:43;;;;;;;1.83;0.80;;;20.80;45.80;;;;;;5048842;28;20045;-44
2022/12/08 11:35:11;;;;;;;1.60;0.73;;;20.80;45.80;;;;;;5051237;28;20053;-44
2022/12/08 11:37:40;;;;;;;1.40;0.70;;;20.80;45.90;;;;;;5051886;28;20053;-44
2022/12/08 11:40:10;;;;;;;1.65;0.90;;;20.80;45.80;;;;;;5051488;28;20045;-44
2022/12/08 11:42:38;;;;;;;1.33;0.68;;;20.80;45.80;;;;;;5051689;28;20057;-44
2022/12/08 11:45:07;;;;;;;1.00;0.80;;;20.80;45.70;;;;;;5049154;28;20041;-44
2022/12/08 11:47:35;;;;;;;1.23;0.68;;;20.80;45.70;;;;;;5049559;28;20055;-44
2022/12/08 11:50:03;;;;;;;4.13;0.75;;;20.80;45.70;;;;;;5052197;28;20052;-44
2022/12/08 11:52:31;;;;;;;2.38;0.90;;;20.80;45.90;;;;;;5051621;28;20646;-44
2022/12/08 11:55:01;;;;;;;1.48;0.70;;;20.70;45.90;;;;;;5051538;28;20400;-44
2022/12/08 11:57:27;;;;;;;1.65;0.95;;;20.70;45.80;;;;;;5052196;28;20053;-44
2022/12/08 11:59:55;;;;;;;1.95;0.90;;;20.70;45.70;;;;;;5051658;28;20055;-44
2022/12/08 12:02:23;;;;;;;1.92;0.77;;;20.70;45.70;;;;;;5051310;28;20055;-44
2022/12/08 12:04:52;;;;;;;1.10;0.60;;;20.70;45.70;;;;;;5050948;28;20056;-44
2022/12/08 12:07:35;;;;;;;1.00;0.60;;;20.70;45.60;;;;;;5048106;28;20452;-44
2022/12/08 12:10:21;;;;;;;2.25;0.73;;;20.60;45.50;;;;;;5049248;28;20045;-44
2022/12/08 12:12:55;;;;;;;1.73;0.80;;;20.50;45.70;;;;;;5050047;28;20051;-44
2022/12/08 12:15:50;;;;;;;0.68;0.60;;;20.50;45.80;;;;;;5049224;28;20055;-44
2022/12/08 12:18:21;;;;;;;3.67;0.80;;;20.50;45.80;;;;;;5048960;28;20702;-44
2022/12/08 12:20:51;;;;;;;0.75;0.57;;;20.50;45.80;;;;;;5050736;28;20048;-44
2022/12/08 12:23:20;;;;;;;0.65;0.60;;;20.40;45.70;;;;;;5048305;28;20051;-44
2022/12/08 12:25:50;;;;;;;1.45;0.90;;;20.40;45.70;;;;;;5050908;28;20049;-44
2022/12/08 12:28:17;;;;;;;1.27;0.70;;;20.40;45.80;;;;;;5051133;28;20059;-44
2022/12/08 12:30:53;;;;;;;0.77;0.60;;;20.30;46.00;;;;;;5051228;28;20037;-44
2022/12/08 12:33:20;;;;;;;1.58;0.80;;;20.30;46.20;;;;;;5047406;28;20063;-44
2022/12/08 12:35:47;;;;;;;0.88;0.60;;;20.30;46.20;;;;;;5050492;28;20124;-44
2022/12/08 12:41:02;;;;;;;1.73;0.52;;;20.30;46.10;;;;;;5049343;28;20050;-44
2022/12/08 12:43:30;;;;;;;1.15;0.60;;;20.20;46.20;;;;;;5049710;28;20131;-44
2022/12/08 12:46:34;;;;;;;0.63;0.50;;;20.20;46.10;;;;;;5050332;28;20049;-44
2022/12/08 12:49:35;;;;;;;1.15;0.60;;;20.20;46.10;;;;;;5050968;28;20049;-44
2022/12/08 12:52:01;;;;;;;3.67;0.82;;;20.20;46.20;;;;;;5030562;28;20049;-44
2022/12/08 12:54:28;;;;;;;3.80;0.90;;;20.10;46.10;;;;;;5030989;28;20049;-44
2022/12/08 12:56:56;;;;;;;1.98;0.80;;;20.10;46.00;;;;;;5031633;28;20509;-44
2022/12/08 12:59:40;;;;;;;4.10;1.42;;;20.10;45.90;;;;;;5030103;28;20054;-44